sensor_id;sensor_type;location;lat;lon;timestamp;temperature;humidity
9083;DHT22;4577;48.704;9.000;2023-01-24T00:06:10;2.70;92.30
9083;DHT22;4577;48.704;9.000;2023-01-24T00:08:36;3.40;92.60
9083;DHT22;4577;48.704;9.000;2023-01-24T00:11:04;2.90;92.30
9083;DHT22;4577;48.704;9.000;2023-01-24T00:13:31;2.80;92.40
9083;DHT22;4577;48.704;9.000;2023-01-24T00:16:17;2.80;92.30
9083;DHT22;4577;48.704;9.000;2023-01-24T00:21:11;2.80;92.20
9083;DHT22;4577;48.704;9.000;2023-01-24T00:23:42;2.80;92.50
9083;DHT22;4577;48.704;9.000;2023-01-24T00:26:08;2.70;92.30
9083;DHT22;4577;48.704;9.000;2023-01-24T00:33:27;2.80;92.70
9083;DHT22;4577;48.704;9.000;2023-01-24T00:35:53;2.70;92.70
9083;DHT22;4577;48.704;9.000;2023-01-24T00:38:19;2.70;92.50
9083;DHT22;4577;48.704;9.000;2023-01-24T00:45:39;2.70;92.50
9083;DHT22;4577;48.704;9.000;2023-01-24T00:48:06;2.80;92.40
9083;DHT22;4577;48.704;9.000;2023-01-24T00:50:33;2.50;92.20
9083;DHT22;4577;48.704;9.000;2023-01-24T00:53:00;2.80;92.50
9083;DHT22;4577;48.704;9.000;2023-01-24T00:55:26;2.80;92.40
9083;DHT22;4577;48.704;9.000;2023-01-24T00:57:52;2.90;92.20
9083;DHT22;4577;48.704;9.000;2023-01-24T01:00:18;2.90;92.20
9083;DHT22;4577;48.704;9.000;2023-01-24T01:02:43;2.90;92.30
9083;DHT22;4577;48.704;9.000;2023-01-24T01:05:09;2.70;91.90
9083;DHT22;4577;48.704;9.000;2023-01-24T01:07:35;2.90;91.90
9083;DHT22;4577;48.704;9.000;2023-01-24T01:10:02;2.90;92.10
9083;DHT22;4577;48.704;9.000;2023-01-24T01:12:27;2.90;91.90
9083;DHT22;4577;48.704;9.000;2023-01-24T01:22:11;2.70;92.20
9083;DHT22;4577;48.704;9.000;2023-01-24T01:24:37;2.70;92.40
9083;DHT22;4577;48.704;9.000;2023-01-24T01:27:03;2.80;92.30
9083;DHT22;4577;48.704;9.000;2023-01-24T01:29:29;2.70;92.30
9083;DHT22;4577;48.704;9.000;2023-01-24T01:31:54;2.80;92.40
9083;DHT22;4577;48.704;9.000;2023-01-24T01:36:46;2.90;92.40
9083;DHT22;4577;48.704;9.000;2023-01-24T01:39:12;2.80;92.30
9083;DHT22;4577;48.704;9.000;2023-01-24T01:41:38;2.80;92.20
9083;DHT22;4577;48.704;9.000;2023-01-24T01:44:39;2.80;92.20
9083;DHT22;4577;48.704;9.000;2023-01-24T01:47:35;2.80;92.40
9083;DHT22;4577;48.704;9.000;2023-01-24T01:55:14;3.40;92.40
9083;DHT22;4577;48.704;9.000;2023-01-24T01:57:42;2.90;92.20
9083;DHT22;4577;48.704;9.000;2023-01-24T02:00:18;2.90;92.00
9083;DHT22;4577;48.704;9.000;2023-01-24T02:02:52;2.90;92.10
9083;DHT22;4577;48.704;9.000;2023-01-24T02:05:21;3.00;92.00
9083;DHT22;4577;48.704;9.000;2023-01-24T02:07:57;2.90;91.70
9083;DHT22;4577;48.704;9.000;2023-01-24T02:10:25;2.90;91.90
9083;DHT22;4577;48.704;9.000;2023-01-24T02:13:12;2.90;92.00
9083;DHT22;4577;48.704;9.000;2023-01-24T02:15:38;3.00;91.60
9083;DHT22;4577;48.704;9.000;2023-01-24T02:18:22;2.90;91.60
9083;DHT22;4577;48.704;9.000;2023-01-24T02:20:48;2.90;92.00
9083;DHT22;4577;48.704;9.000;2023-01-24T02:26:19;2.90;92.10
9083;DHT22;4577;48.704;9.000;2023-01-24T02:28:57;2.90;92.10
9083;DHT22;4577;48.704;9.000;2023-01-24T02:31:24;2.80;92.40
9083;DHT22;4577;48.704;9.000;2023-01-24T02:36:30;3.00;92.50
9083;DHT22;4577;48.704;9.000;2023-01-24T02:39:05;2.90;92.40
9083;DHT22;4577;48.704;9.000;2023-01-24T02:41:50;3.00;92.30
9083;DHT22;4577;48.704;9.000;2023-01-24T02:44:44;3.00;92.30
9083;DHT22;4577;48.704;9.000;2023-01-24T02:47:07;2.80;92.20
9083;DHT22;4577;48.704;9.000;2023-01-24T02:49:33;2.70;92.40
9083;DHT22;4577;48.704;9.000;2023-01-24T02:51:59;2.70;92.40
9083;DHT22;4577;48.704;9.000;2023-01-24T02:57:09;2.80;92.40
9083;DHT22;4577;48.704;9.000;2023-01-24T03:04:45;2.80;92.30
9083;DHT22;4577;48.704;9.000;2023-01-24T03:07:11;2.80;92.50
9083;DHT22;4577;48.704;9.000;2023-01-24T03:09:37;2.90;92.70
9083;DHT22;4577;48.704;9.000;2023-01-24T03:12:07;2.80;92.40
9083;DHT22;4577;48.704;9.000;2023-01-24T03:14:51;2.60;92.70
9083;DHT22;4577;48.704;9.000;2023-01-24T03:17:35;2.80;92.60
9083;DHT22;4577;48.704;9.000;2023-01-24T03:20:20;2.90;92.80
9083;DHT22;4577;48.704;9.000;2023-01-24T03:23:04;2.90;92.50
9083;DHT22;4577;48.704;9.000;2023-01-24T03:25:52;2.80;92.50
9083;DHT22;4577;48.704;9.000;2023-01-24T03:28:36;2.90;92.60
9083;DHT22;4577;48.704;9.000;2023-01-24T03:31:20;2.90;92.70
9083;DHT22;4577;48.704;9.000;2023-01-24T03:36:49;2.80;92.80
9083;DHT22;4577;48.704;9.000;2023-01-24T03:44:26;2.90;92.80
9083;DHT22;4577;48.704;9.000;2023-01-24T03:46:52;2.70;92.50
9083;DHT22;4577;48.704;9.000;2023-01-24T03:49:17;2.80;92.80
9083;DHT22;4577;48.704;9.000;2023-01-24T03:56:54;2.80;92.70
9083;DHT22;4577;48.704;9.000;2023-01-24T04:04:12;2.90;92.80
9083;DHT22;4577;48.704;9.000;2023-01-24T04:18:48;2.90;92.80
9083;DHT22;4577;48.704;9.000;2023-01-24T04:21:14;2.80;92.70
9083;DHT22;4577;48.704;9.000;2023-01-24T04:26:06;2.80;93.00
9083;DHT22;4577;48.704;9.000;2023-01-24T04:28:32;2.80;93.40
9083;DHT22;4577;48.704;9.000;2023-01-24T04:31:01;2.80;93.00
9083;DHT22;4577;48.704;9.000;2023-01-24T04:33:28;2.70;93.20
9083;DHT22;4577;48.704;9.000;2023-01-24T04:35:57;2.80;93.50
9083;DHT22;4577;48.704;9.000;2023-01-24T04:38:23;2.80;93.40
9083;DHT22;4577;48.704;9.000;2023-01-24T04:41:02;2.50;93.40
9083;DHT22;4577;48.704;9.000;2023-01-24T04:43:28;2.70;93.50
9083;DHT22;4577;48.704;9.000;2023-01-24T04:45:58;2.70;93.40
9083;DHT22;4577;48.704;9.000;2023-01-24T04:48:24;2.70;93.60
9083;DHT22;4577;48.704;9.000;2023-01-24T04:50:50;2.70;93.60
9083;DHT22;4577;48.704;9.000;2023-01-24T04:53:15;2.80;93.60
9083;DHT22;4577;48.704;9.000;2023-01-24T05:10:18;2.80;93.70
9083;DHT22;4577;48.704;9.000;2023-01-24T05:12:44;2.00;93.50
9083;DHT22;4577;48.704;9.000;2023-01-24T05:20:03;2.80;93.80
9083;DHT22;4577;48.704;9.000;2023-01-24T05:27:21;2.80;94.00
9083;DHT22;4577;48.704;9.000;2023-01-24T05:29:47;3.00;94.10
9083;DHT22;4577;48.704;9.000;2023-01-24T05:39:31;2.90;94.40
9083;DHT22;4577;48.704;9.000;2023-01-24T05:41:57;2.80;94.40
9083;DHT22;4577;48.704;9.000;2023-01-24T05:46:48;2.80;94.50
9083;DHT22;4577;48.704;9.000;2023-01-24T05:49:14;2.80;94.50
9083;DHT22;4577;48.704;9.000;2023-01-24T05:51:40;3.00;94.80
9083;DHT22;4577;48.704;9.000;2023-01-24T05:58:58;2.80;94.40
9083;DHT22;4577;48.704;9.000;2023-01-24T06:01:26;3.10;94.40
9083;DHT22;4577;48.704;9.000;2023-01-24T06:03:52;2.90;94.40
9083;DHT22;4577;48.704;9.000;2023-01-24T06:06:23;3.00;94.40
9083;DHT22;4577;48.704;9.000;2023-01-24T06:08:50;3.20;94.50
9083;DHT22;4577;48.704;9.000;2023-01-24T06:11:21;3.00;94.50
9083;DHT22;4577;48.704;9.000;2023-01-24T06:13:48;3.00;94.40
9083;DHT22;4577;48.704;9.000;2023-01-24T06:16:19;3.00;94.30
9083;DHT22;4577;48.704;9.000;2023-01-24T06:18:45;3.00;94.70
9083;DHT22;4577;48.704;9.000;2023-01-24T06:23:53;3.20;93.70
9083;DHT22;4577;48.704;9.000;2023-01-24T06:26:20;3.10;93.90
9083;DHT22;4577;48.704;9.000;2023-01-24T06:28:47;3.10;94.00
9083;DHT22;4577;48.704;9.000;2023-01-24T06:34:18;3.00;94.00
9083;DHT22;4577;48.704;9.000;2023-01-24T06:36:51;2.90;94.50
9083;DHT22;4577;48.704;9.000;2023-01-24T06:39:24;2.90;94.60
9083;DHT22;4577;48.704;9.000;2023-01-24T06:41:51;3.00;94.70
9083;DHT22;4577;48.704;9.000;2023-01-24T06:44:18;2.90;94.40
9083;DHT22;4577;48.704;9.000;2023-01-24T06:46:45;3.50;95.00
9083;DHT22;4577;48.704;9.000;2023-01-24T06:49:12;2.90;94.40
9083;DHT22;4577;48.704;9.000;2023-01-24T06:54:06;3.00;94.10
9083;DHT22;4577;48.704;9.000;2023-01-24T06:56:33;3.00;94.10
9083;DHT22;4577;48.704;9.000;2023-01-24T06:59:00;3.00;94.40
9083;DHT22;4577;48.704;9.000;2023-01-24T07:01:26;2.90;94.30
9083;DHT22;4577;48.704;9.000;2023-01-24T07:03:54;2.80;94.50
9083;DHT22;4577;48.704;9.000;2023-01-24T07:08:49;2.90;94.60
9083;DHT22;4577;48.704;9.000;2023-01-24T07:11:16;2.80;94.30
9083;DHT22;4577;48.704;9.000;2023-01-24T07:13:43;3.00;94.20
9083;DHT22;4577;48.704;9.000;2023-01-24T07:16:09;3.10;94.00
9083;DHT22;4577;48.704;9.000;2023-01-24T07:18:36;3.00;94.10
9083;DHT22;4577;48.704;9.000;2023-01-24T07:21:06;2.80;94.30
9083;DHT22;4577;48.704;9.000;2023-01-24T07:23:33;2.80;94.40
9083;DHT22;4577;48.704;9.000;2023-01-24T07:26:00;2.80;94.70
9083;DHT22;4577;48.704;9.000;2023-01-24T07:30:53;2.90;94.30
9083;DHT22;4577;48.704;9.000;2023-01-24T07:33:19;2.90;94.40
9083;DHT22;4577;48.704;9.000;2023-01-24T07:35:44;2.80;94.30
9083;DHT22;4577;48.704;9.000;2023-01-24T07:38:10;2.90;94.30
9083;DHT22;4577;48.704;9.000;2023-01-24T07:45:32;3.10;94.50
9083;DHT22;4577;48.704;9.000;2023-01-24T07:48:00;3.10;94.00
9083;DHT22;4577;48.704;9.000;2023-01-24T08:00:15;3.00;93.70
9083;DHT22;4577;48.704;9.000;2023-01-24T08:10:03;2.90;93.70
9083;DHT22;4577;48.704;9.000;2023-01-24T08:12:29;2.50;93.80
9083;DHT22;4577;48.704;9.000;2023-01-24T09:03:40;3.10;93.20
9083;DHT22;4577;48.704;9.000;2023-01-24T09:11:00;3.10;93.40
9083;DHT22;4577;48.704;9.000;2023-01-24T09:13:26;3.20;93.10
9083;DHT22;4577;48.704;9.000;2023-01-24T09:18:18;3.20;93.60
9083;DHT22;4577;48.704;9.000;2023-01-24T09:23:13;3.10;93.20
9083;DHT22;4577;48.704;9.000;2023-01-24T09:25:41;3.10;93.50
9083;DHT22;4577;48.704;9.000;2023-01-24T09:30:34;3.10;93.40
9083;DHT22;4577;48.704;9.000;2023-01-24T09:33:04;3.10;93.50
9083;DHT22;4577;48.704;9.000;2023-01-24T09:40:26;3.00;93.20
9083;DHT22;4577;48.704;9.000;2023-01-24T09:43:06;3.30;93.40
9083;DHT22;4577;48.704;9.000;2023-01-24T09:45:49;3.20;93.50
9083;DHT22;4577;48.704;9.000;2023-01-24T09:50:51;3.20;93.70
9083;DHT22;4577;48.704;9.000;2023-01-24T09:53:26;3.30;93.80
9083;DHT22;4577;48.704;9.000;2023-01-24T09:58:32;3.20;93.60
9083;DHT22;4577;48.704;9.000;2023-01-24T10:01:10;3.30;93.70
9083;DHT22;4577;48.704;9.000;2023-01-24T10:03:37;3.30;93.50
9083;DHT22;4577;48.704;9.000;2023-01-24T10:06:08;3.20;93.50
9083;DHT22;4577;48.704;9.000;2023-01-24T10:08:55;3.20;93.70
9083;DHT22;4577;48.704;9.000;2023-01-24T10:24:26;3.50;93.20
9083;DHT22;4577;48.704;9.000;2023-01-24T10:26:55;3.50;92.80
9083;DHT22;4577;48.704;9.000;2023-01-24T10:29:24;3.40;92.80
9083;DHT22;4577;48.704;9.000;2023-01-24T10:32:05;3.40;92.90
9083;DHT22;4577;48.704;9.000;2023-01-24T10:39:38;3.40;93.20
9083;DHT22;4577;48.704;9.000;2023-01-24T10:42:30;3.40;93.00
9083;DHT22;4577;48.704;9.000;2023-01-24T10:45:00;3.40;93.20
9083;DHT22;4577;48.704;9.000;2023-01-24T10:47:49;3.50;93.20
9083;DHT22;4577;48.704;9.000;2023-01-24T10:50:18;3.40;93.30
9083;DHT22;4577;48.704;9.000;2023-01-24T10:52:44;3.40;93.30
9083;DHT22;4577;48.704;9.000;2023-01-24T10:55:33;3.40;93.20
9083;DHT22;4577;48.704;9.000;2023-01-24T10:58:03;3.60;93.30
9083;DHT22;4577;48.704;9.000;2023-01-24T11:00:36;3.50;93.10
9083;DHT22;4577;48.704;9.000;2023-01-24T11:03:25;3.30;92.90
9083;DHT22;4577;48.704;9.000;2023-01-24T11:05:53;3.60;93.00
9083;DHT22;4577;48.704;9.000;2023-01-24T11:08:25;3.60;93.00
9083;DHT22;4577;48.704;9.000;2023-01-24T11:10:53;3.60;92.70
9083;DHT22;4577;48.704;9.000;2023-01-24T11:13:34;3.70;92.70
9083;DHT22;4577;48.704;9.000;2023-01-24T11:19:02;3.60;92.60
9083;DHT22;4577;48.704;9.000;2023-01-24T11:21:29;3.70;92.40
9083;DHT22;4577;48.704;9.000;2023-01-24T11:26:36;3.80;92.20
9083;DHT22;4577;48.704;9.000;2023-01-24T11:29:14;3.70;92.00
9083;DHT22;4577;48.704;9.000;2023-01-24T11:31:44;3.90;91.80
9083;DHT22;4577;48.704;9.000;2023-01-24T11:40:58;3.80;91.80
9083;DHT22;4577;48.704;9.000;2023-01-24T11:48:55;4.00;91.40
9083;DHT22;4577;48.704;9.000;2023-01-24T12:00:56;4.10;91.60
9083;DHT22;4577;48.704;9.000;2023-01-24T12:17:12;4.10;90.90
9083;DHT22;4577;48.704;9.000;2023-01-24T12:22:52;4.10;91.00
9083;DHT22;4577;48.704;9.000;2023-01-24T12:25:30;4.00;91.30
9083;DHT22;4577;48.704;9.000;2023-01-24T12:28:00;4.10;91.40
9083;DHT22;4577;48.704;9.000;2023-01-24T12:33:39;4.00;91.30
9083;DHT22;4577;48.704;9.000;2023-01-24T12:36:14;4.00;91.70
9083;DHT22;4577;48.704;9.000;2023-01-24T12:38:45;4.00;91.30
9083;DHT22;4577;48.704;9.000;2023-01-24T12:43:48;4.00;91.60
9083;DHT22;4577;48.704;9.000;2023-01-24T12:46:27;4.10;91.20
9083;DHT22;4577;48.704;9.000;2023-01-24T12:52:14;4.00;91.40
9083;DHT22;4577;48.704;9.000;2023-01-24T12:54:48;4.00;91.40
9083;DHT22;4577;48.704;9.000;2023-01-24T12:59:42;4.10;91.40
9083;DHT22;4577;48.704;9.000;2023-01-24T13:04:47;4.10;91.50
9083;DHT22;4577;48.704;9.000;2023-01-24T13:09:59;4.00;91.30
9083;DHT22;4577;48.704;9.000;2023-01-24T13:12:27;3.90;91.40
9083;DHT22;4577;48.704;9.000;2023-01-24T13:15:04;4.00;91.40
9083;DHT22;4577;48.704;9.000;2023-01-24T13:23:18;3.90;91.40
9083;DHT22;4577;48.704;9.000;2023-01-24T13:26:11;4.00;91.10
9083;DHT22;4577;48.704;9.000;2023-01-24T13:29:07;4.00;91.30
9083;DHT22;4577;48.704;9.000;2023-01-24T13:32:17;3.90;91.30
9083;DHT22;4577;48.704;9.000;2023-01-24T13:34:50;3.90;91.30
9083;DHT22;4577;48.704;9.000;2023-01-24T13:37:24;3.90;91.20
9083;DHT22;4577;48.704;9.000;2023-01-24T13:40:22;3.80;91.10
9083;DHT22;4577;48.704;9.000;2023-01-24T13:47:59;3.90;91.10
9083;DHT22;4577;48.704;9.000;2023-01-24T13:50:29;6.50;92.00
9083;DHT22;4577;48.704;9.000;2023-01-24T14:03:04;3.80;91.30
9083;DHT22;4577;48.704;9.000;2023-01-24T14:05:43;3.70;91.20
9083;DHT22;4577;48.704;9.000;2023-01-24T14:10:51;3.40;91.30
9083;DHT22;4577;48.704;9.000;2023-01-24T14:16:11;3.70;91.40
9083;DHT22;4577;48.704;9.000;2023-01-24T14:18:46;3.70;91.40
9083;DHT22;4577;48.704;9.000;2023-01-24T14:21:18;3.70;91.20
9083;DHT22;4577;48.704;9.000;2023-01-24T14:23:48;3.70;91.20
9083;DHT22;4577;48.704;9.000;2023-01-24T14:26:15;3.70;91.40
9083;DHT22;4577;48.704;9.000;2023-01-24T14:28:48;3.60;91.50
9083;DHT22;4577;48.704;9.000;2023-01-24T14:31:28;3.60;91.40
9083;DHT22;4577;48.704;9.000;2023-01-24T14:34:11;3.50;91.40
9083;DHT22;4577;48.704;9.000;2023-01-24T14:36:39;3.30;91.40
9083;DHT22;4577;48.704;9.000;2023-01-24T14:39:21;7.30;93.30
9083;DHT22;4577;48.704;9.000;2023-01-24T14:41:51;3.60;91.60
9083;DHT22;4577;48.704;9.000;2023-01-24T14:44:22;3.70;91.60
9083;DHT22;4577;48.704;9.000;2023-01-24T14:46:57;3.60;91.80
9083;DHT22;4577;48.704;9.000;2023-01-24T14:49:35;3.80;91.70
9083;DHT22;4577;48.704;9.000;2023-01-24T14:52:14;3.50;92.00
9083;DHT22;4577;48.704;9.000;2023-01-24T14:54:53;3.70;92.20
9083;DHT22;4577;48.704;9.000;2023-01-24T14:57:27;3.50;92.00
9083;DHT22;4577;48.704;9.000;2023-01-24T15:02:40;4.20;92.40
9083;DHT22;4577;48.704;9.000;2023-01-24T15:05:35;3.70;92.10
9083;DHT22;4577;48.704;9.000;2023-01-24T15:08:04;3.50;91.90
9083;DHT22;4577;48.704;9.000;2023-01-24T15:10:34;3.70;92.00
9083;DHT22;4577;48.704;9.000;2023-01-24T15:13:04;3.00;91.60
9083;DHT22;4577;48.704;9.000;2023-01-24T15:15:32;3.70;91.80
9083;DHT22;4577;48.704;9.000;2023-01-24T15:18:04;3.70;91.90
9083;DHT22;4577;48.704;9.000;2023-01-24T15:20:30;3.80;92.00
9083;DHT22;4577;48.704;9.000;2023-01-24T15:22:59;3.80;91.70
9083;DHT22;4577;48.704;9.000;2023-01-24T15:27:54;3.70;91.90
9083;DHT22;4577;48.704;9.000;2023-01-24T15:30:27;3.40;91.90
9083;DHT22;4577;48.704;9.000;2023-01-24T15:40:51;3.90;92.30
9083;DHT22;4577;48.704;9.000;2023-01-24T15:43:22;3.70;92.50
9083;DHT22;4577;48.704;9.000;2023-01-24T15:46:30;3.60;92.40
9083;DHT22;4577;48.704;9.000;2023-01-24T15:54:55;3.50;92.60
9083;DHT22;4577;48.704;9.000;2023-01-24T15:57:33;3.60;92.50
9083;DHT22;4577;48.704;9.000;2023-01-24T16:02:34;3.40;92.90
9083;DHT22;4577;48.704;9.000;2023-01-24T16:05:00;3.60;92.90
9083;DHT22;4577;48.704;9.000;2023-01-24T16:07:27;3.40;92.90
9083;DHT22;4577;48.704;9.000;2023-01-24T16:12:21;3.60;93.10
9083;DHT22;4577;48.704;9.000;2023-01-24T16:14:52;3.70;93.00
9083;DHT22;4577;48.704;9.000;2023-01-24T16:17:21;3.60;92.70
9083;DHT22;4577;48.704;9.000;2023-01-24T16:24:41;4.10;93.30
9083;DHT22;4577;48.704;9.000;2023-01-24T16:27:10;3.30;93.10
9083;DHT22;4577;48.704;9.000;2023-01-24T16:29:37;3.60;92.90
9083;DHT22;4577;48.704;9.000;2023-01-24T16:34:29;3.70;92.90
9083;DHT22;4577;48.704;9.000;2023-01-24T16:39:21;3.50;92.90
9083;DHT22;4577;48.704;9.000;2023-01-24T16:41:48;3.50;93.00
9083;DHT22;4577;48.704;9.000;2023-01-24T16:44:14;3.50;92.90
9083;DHT22;4577;48.704;9.000;2023-01-24T16:46:41;3.50;93.30
9083;DHT22;4577;48.704;9.000;2023-01-24T16:51:37;3.20;93.40
9083;DHT22;4577;48.704;9.000;2023-01-24T16:56:29;3.50;93.30
9083;DHT22;4577;48.704;9.000;2023-01-24T17:03:51;3.50;93.70
9083;DHT22;4577;48.704;9.000;2023-01-24T17:06:17;3.50;93.80
9083;DHT22;4577;48.704;9.000;2023-01-24T17:08:43;3.50;93.70
9083;DHT22;4577;48.704;9.000;2023-01-24T17:11:10;3.40;93.70
9083;DHT22;4577;48.704;9.000;2023-01-24T17:13:36;3.40;93.80
9083;DHT22;4577;48.704;9.000;2023-01-24T17:16:07;3.40;93.80
9083;DHT22;4577;48.704;9.000;2023-01-24T17:18:34;6.60;95.00
9083;DHT22;4577;48.704;9.000;2023-01-24T17:21:05;3.50;93.60
9083;DHT22;4577;48.704;9.000;2023-01-24T17:23:32;3.50;93.60
9083;DHT22;4577;48.704;9.000;2023-01-24T17:26:02;3.50;93.50
9083;DHT22;4577;48.704;9.000;2023-01-24T17:28:29;3.40;93.90
9083;DHT22;4577;48.704;9.000;2023-01-24T17:30:55;3.30;94.10
9083;DHT22;4577;48.704;9.000;2023-01-24T17:33:21;3.30;94.30
9083;DHT22;4577;48.704;9.000;2023-01-24T17:35:46;3.30;94.30
9083;DHT22;4577;48.704;9.000;2023-01-24T17:38:12;3.40;94.30
9083;DHT22;4577;48.704;9.000;2023-01-24T17:40:38;3.30;94.50
9083;DHT22;4577;48.704;9.000;2023-01-24T17:43:04;3.30;94.50
9083;DHT22;4577;48.704;9.000;2023-01-24T17:47:56;3.20;95.00
9083;DHT22;4577;48.704;9.000;2023-01-24T17:50:22;3.30;94.50
9083;DHT22;4577;48.704;9.000;2023-01-24T17:57:43;3.40;94.40
9083;DHT22;4577;48.704;9.000;2023-01-24T18:00:10;3.30;94.30
9083;DHT22;4577;48.704;9.000;2023-01-24T18:05:02;3.10;94.60
9083;DHT22;4577;48.704;9.000;2023-01-24T18:07:28;3.30;94.50
9083;DHT22;4577;48.704;9.000;2023-01-24T18:09:53;3.50;94.80
9083;DHT22;4577;48.704;9.000;2023-01-24T18:12:19;3.10;94.40
9083;DHT22;4577;48.704;9.000;2023-01-24T18:17:11;3.10;94.90
9083;DHT22;4577;48.704;9.000;2023-01-24T18:19:36;3.20;95.20
9083;DHT22;4577;48.704;9.000;2023-01-24T18:26:54;3.20;95.20
9083;DHT22;4577;48.704;9.000;2023-01-24T18:29:20;3.30;95.00
9083;DHT22;4577;48.704;9.000;2023-01-24T18:31:45;3.20;94.80
9083;DHT22;4577;48.704;9.000;2023-01-24T18:36:38;3.50;95.20
9083;DHT22;4577;48.704;9.000;2023-01-24T18:39:05;3.30;95.00
9083;DHT22;4577;48.704;9.000;2023-01-24T18:41:32;3.00;95.00
9083;DHT22;4577;48.704;9.000;2023-01-24T18:44:00;3.10;95.10
9083;DHT22;4577;48.704;9.000;2023-01-24T18:46:27;3.10;95.50
9083;DHT22;4577;48.704;9.000;2023-01-24T18:48:54;2.90;95.30
9083;DHT22;4577;48.704;9.000;2023-01-24T18:51:21;3.20;95.40
9083;DHT22;4577;48.704;9.000;2023-01-24T18:53:51;3.10;95.60
9083;DHT22;4577;48.704;9.000;2023-01-24T18:56:19;3.30;95.70
9083;DHT22;4577;48.704;9.000;2023-01-24T18:58:46;3.20;95.50
9083;DHT22;4577;48.704;9.000;2023-01-24T19:01:21;3.10;95.30
9083;DHT22;4577;48.704;9.000;2023-01-24T19:03:49;3.10;95.50
9083;DHT22;4577;48.704;9.000;2023-01-24T19:06:24;3.30;95.40
9083;DHT22;4577;48.704;9.000;2023-01-24T19:08:53;3.10;95.40
9083;DHT22;4577;48.704;9.000;2023-01-24T19:11:20;3.20;96.00
9083;DHT22;4577;48.704;9.000;2023-01-24T19:13:47;3.20;95.90
9083;DHT22;4577;48.704;9.000;2023-01-24T19:16:14;3.20;95.70
9083;DHT22;4577;48.704;9.000;2023-01-24T19:18:41;3.20;96.00
9083;DHT22;4577;48.704;9.000;2023-01-24T19:21:09;3.20;95.70
9083;DHT22;4577;48.704;9.000;2023-01-24T19:23:37;3.20;95.90
9083;DHT22;4577;48.704;9.000;2023-01-24T19:26:06;3.20;95.40
9083;DHT22;4577;48.704;9.000;2023-01-24T19:28:33;3.10;95.80
9083;DHT22;4577;48.704;9.000;2023-01-24T19:31:00;3.20;95.80
9083;DHT22;4577;48.704;9.000;2023-01-24T19:33:27;3.10;95.70
9083;DHT22;4577;48.704;9.000;2023-01-24T19:35:54;3.20;96.10
9083;DHT22;4577;48.704;9.000;2023-01-24T19:40:46;2.90;95.90
9083;DHT22;4577;48.704;9.000;2023-01-24T19:43:12;3.10;95.80
9083;DHT22;4577;48.704;9.000;2023-01-24T19:45:38;3.10;96.10
9083;DHT22;4577;48.704;9.000;2023-01-24T19:48:05;3.10;96.40
9083;DHT22;4577;48.704;9.000;2023-01-24T19:50:31;3.30;96.20
9083;DHT22;4577;48.704;9.000;2023-01-24T19:52:57;3.00;96.30
9083;DHT22;4577;48.704;9.000;2023-01-24T19:55:23;3.00;96.50
9083;DHT22;4577;48.704;9.000;2023-01-24T19:57:49;3.10;96.60
9083;DHT22;4577;48.704;9.000;2023-01-24T20:02:44;3.10;96.60
9083;DHT22;4577;48.704;9.000;2023-01-24T20:07:39;3.10;96.60
9083;DHT22;4577;48.704;9.000;2023-01-24T20:10:05;3.00;96.70
9083;DHT22;4577;48.704;9.000;2023-01-24T20:19:49;2.80;96.30
9083;DHT22;4577;48.704;9.000;2023-01-24T20:29:33;3.20;96.90
9083;DHT22;4577;48.704;9.000;2023-01-24T20:34:25;3.10;96.60
9083;DHT22;4577;48.704;9.000;2023-01-24T20:39:18;3.40;96.60
9083;DHT22;4577;48.704;9.000;2023-01-24T20:41:44;3.20;96.30
9083;DHT22;4577;48.704;9.000;2023-01-24T20:44:14;2.90;96.30
9083;DHT22;4577;48.704;9.000;2023-01-24T20:53:59;3.10;96.80
9083;DHT22;4577;48.704;9.000;2023-01-24T20:56:26;3.20;96.70
9083;DHT22;4577;48.704;9.000;2023-01-24T20:58:56;3.10;96.40
9083;DHT22;4577;48.704;9.000;2023-01-24T21:01:23;3.10;96.30
9083;DHT22;4577;48.704;9.000;2023-01-24T21:03:49;3.00;96.60
9083;DHT22;4577;48.704;9.000;2023-01-24T21:06:18;3.10;96.60
9083;DHT22;4577;48.704;9.000;2023-01-24T21:08:46;3.00;96.70
9083;DHT22;4577;48.704;9.000;2023-01-24T21:11:18;3.10;96.40
9083;DHT22;4577;48.704;9.000;2023-01-24T21:13:49;2.80;96.50
9083;DHT22;4577;48.704;9.000;2023-01-24T21:18:41;3.00;96.80
9083;DHT22;4577;48.704;9.000;2023-01-24T21:21:08;3.00;97.20
9083;DHT22;4577;48.704;9.000;2023-01-24T21:23:34;3.00;96.70
9083;DHT22;4577;48.704;9.000;2023-01-24T21:26:04;3.10;97.30
9083;DHT22;4577;48.704;9.000;2023-01-24T21:28:30;3.00;97.00
9083;DHT22;4577;48.704;9.000;2023-01-24T21:31:04;2.80;96.70
9083;DHT22;4577;48.704;9.000;2023-01-24T21:33:30;2.90;97.10
9083;DHT22;4577;48.704;9.000;2023-01-24T21:36:17;2.90;97.20
9083;DHT22;4577;48.704;9.000;2023-01-24T21:41:11;2.90;97.20
9083;DHT22;4577;48.704;9.000;2023-01-24T21:51:38;2.90;96.70
9083;DHT22;4577;48.704;9.000;2023-01-24T21:54:22;2.90;97.30
9083;DHT22;4577;48.704;9.000;2023-01-24T21:56:59;2.90;97.20
9083;DHT22;4577;48.704;9.000;2023-01-24T21:59:43;2.80;97.20
9083;DHT22;4577;48.704;9.000;2023-01-24T22:02:17;3.10;97.20
9083;DHT22;4577;48.704;9.000;2023-01-24T22:07:14;2.90;97.10
9083;DHT22;4577;48.704;9.000;2023-01-24T22:09:40;2.90;97.00
9083;DHT22;4577;48.704;9.000;2023-01-24T22:12:07;3.00;97.00
9083;DHT22;4577;48.704;9.000;2023-01-24T22:14:33;2.60;96.50
9083;DHT22;4577;48.704;9.000;2023-01-24T22:17:01;2.90;96.80
9083;DHT22;4577;48.704;9.000;2023-01-24T22:19:39;2.80;96.90
9083;DHT22;4577;48.704;9.000;2023-01-24T22:22:11;2.90;97.10
9083;DHT22;4577;48.704;9.000;2023-01-24T22:27:15;2.80;97.00
9083;DHT22;4577;48.704;9.000;2023-01-24T22:29:42;2.90;97.30
9083;DHT22;4577;48.704;9.000;2023-01-24T22:32:11;3.00;97.00
9083;DHT22;4577;48.704;9.000;2023-01-24T22:34:37;2.80;97.30
9083;DHT22;4577;48.704;9.000;2023-01-24T22:39:47;2.80;97.70
9083;DHT22;4577;48.704;9.000;2023-01-24T22:42:13;2.90;97.70
9083;DHT22;4577;48.704;9.000;2023-01-24T22:47:05;2.70;97.10
9083;DHT22;4577;48.704;9.000;2023-01-24T22:49:30;2.90;97.00
9083;DHT22;4577;48.704;9.000;2023-01-24T22:52:00;2.90;97.00
9083;DHT22;4577;48.704;9.000;2023-01-24T23:01:43;2.80;96.60
9083;DHT22;4577;48.704;9.000;2023-01-24T23:04:09;2.90;96.90
9083;DHT22;4577;48.704;9.000;2023-01-24T23:06:35;3.00;96.90
9083;DHT22;4577;48.704;9.000;2023-01-24T23:11:27;2.90;96.60
9083;DHT22;4577;48.704;9.000;2023-01-24T23:13:53;3.10;96.50
9083;DHT22;4577;48.704;9.000;2023-01-24T23:19:29;3.00;96.80
9083;DHT22;4577;48.704;9.000;2023-01-24T23:22:16;3.00;96.70
9083;DHT22;4577;48.704;9.000;2023-01-24T23:32:25;2.90;96.70
9083;DHT22;4577;48.704;9.000;2023-01-24T23:34:58;2.90;96.80
9083;DHT22;4577;48.704;9.000;2023-01-24T23:37:26;2.60;96.70
9083;DHT22;4577;48.704;9.000;2023-01-24T23:39:52;2.90;96.70
9083;DHT22;4577;48.704;9.000;2023-01-24T23:44:44;2.90;97.10
9083;DHT22;4577;48.704;9.000;2023-01-24T23:49:36;2.90;96.60
9083;DHT22;4577;48.704;9.000;2023-01-24T23:52:03;3.00;96.70
9083;DHT22;4577;48.704;9.000;2023-01-24T23:54:29;3.00;96.60
9083;DHT22;4577;48.704;9.000;2023-01-24T23:56:55;2.90;96.90
9083;DHT22;4577;48.704;9.000;2023-01-24T23:59:20;3.20;97.20
